Maues, Brazil
Current Conditions -  °F | °C
As of 1:00 PM on Thursday 18 Dec 2014 (Local Time) from SBIH Reporting Station
Scattered Clouds Scattered Clouds  
Wind Chill: 88°   Ceiling: Unl
Heat Index: 100°   Visibility: 6mi
Dew Point: 77°   Wind: 6mph
Humidity: 70%   Direction: 90°E
Pressure: 29.8"   Gusts: NA
Location:  3.39°S, 57.72°W
Report Text: SBIH 181700Z 09005KT 9999 SCT023 FEW024TCU 31/25 Q1009
Loading
Personal Weather Stations






























Interactive Weather Map New forecast layout! Learn more

10-Day Weather Forecast

Advertisements
Track Severe Weather on mobile